sensor_id;sensor_type;location;lat;lon;timestamp;temperature;humidity
2190;DHT22;1101;51.056;7.262;2023-06-22T00:01:26;21.40;71.50
2190;DHT22;1101;51.056;7.262;2023-06-22T00:03:55;21.40;71.50
2190;DHT22;1101;51.056;7.262;2023-06-22T00:06:23;21.40;71.60
2190;DHT22;1101;51.056;7.262;2023-06-22T00:08:52;21.40;71.60
2190;DHT22;1101;51.056;7.262;2023-06-22T00:11:20;21.40;71.60
2190;DHT22;1101;51.056;7.262;2023-06-22T00:13:48;21.40;71.60
2190;DHT22;1101;51.056;7.262;2023-06-22T00:16:17;21.40;71.60
2190;DHT22;1101;51.056;7.262;2023-06-22T00:18:46;21.40;71.60
2190;DHT22;1101;51.056;7.262;2023-06-22T00:21:15;21.40;71.80
2190;DHT22;1101;51.056;7.262;2023-06-22T00:23:43;21.40;71.70
2190;DHT22;1101;51.056;7.262;2023-06-22T00:26:11;21.30;71.50
2190;DHT22;1101;51.056;7.262;2023-06-22T00:28:39;21.40;71.70
2190;DHT22;1101;51.056;7.262;2023-06-22T00:31:07;21.40;71.60
2190;DHT22;1101;51.056;7.262;2023-06-22T00:33:35;21.40;71.60
2190;DHT22;1101;51.056;7.262;2023-06-22T00:36:04;21.40;71.60
2190;DHT22;1101;51.056;7.262;2023-06-22T00:38:32;21.40;71.50
2190;DHT22;1101;51.056;7.262;2023-06-22T00:41:00;21.40;71.60
2190;DHT22;1101;51.056;7.262;2023-06-22T00:43:28;21.40;71.60
2190;DHT22;1101;51.056;7.262;2023-06-22T00:45:56;21.40;71.60
2190;DHT22;1101;51.056;7.262;2023-06-22T00:48:24;21.30;71.50
2190;DHT22;1101;51.056;7.262;2023-06-22T00:50:53;21.30;71.50
2190;DHT22;1101;51.056;7.262;2023-06-22T00:53:23;21.30;71.50
2190;DHT22;1101;51.056;7.262;2023-06-22T00:55:51;21.30;71.60
2190;DHT22;1101;51.056;7.262;2023-06-22T00:58:19;21.30;71.60
2190;DHT22;1101;51.056;7.262;2023-06-22T01:00:48;21.30;71.70
2190;DHT22;1101;51.056;7.262;2023-06-22T01:03:16;21.30;71.80
2190;DHT22;1101;51.056;7.262;2023-06-22T01:05:46;21.30;71.80
2190;DHT22;1101;51.056;7.262;2023-06-22T01:08:31;21.20;71.70
2190;DHT22;1101;51.056;7.262;2023-06-22T01:11:08;21.30;71.90
2190;DHT22;1101;51.056;7.262;2023-06-22T01:13:41;21.20;71.80
2190;DHT22;1101;51.056;7.262;2023-06-22T01:16:15;21.20;71.90
2190;DHT22;1101;51.056;7.262;2023-06-22T01:18:45;21.20;72.00
2190;DHT22;1101;51.056;7.262;2023-06-22T01:21:17;21.20;72.00
2190;DHT22;1101;51.056;7.262;2023-06-22T01:24:03;21.20;72.10
2190;DHT22;1101;51.056;7.262;2023-06-22T01:26:38;21.20;72.10
2190;DHT22;1101;51.056;7.262;2023-06-22T01:29:12;21.10;72.00
2190;DHT22;1101;51.056;7.262;2023-06-22T01:31:42;21.10;72.00
2190;DHT22;1101;51.056;7.262;2023-06-22T01:34:12;21.10;72.00
2190;DHT22;1101;51.056;7.262;2023-06-22T01:36:42;21.10;72.10
2190;DHT22;1101;51.056;7.262;2023-06-22T01:39:10;21.10;72.00
2190;DHT22;1101;51.056;7.262;2023-06-22T01:41:39;21.10;72.00
2190;DHT22;1101;51.056;7.262;2023-06-22T01:44:10;21.10;72.10
2190;DHT22;1101;51.056;7.262;2023-06-22T01:46:39;21.10;72.20
2190;DHT22;1101;51.056;7.262;2023-06-22T01:49:08;21.10;72.30
2190;DHT22;1101;51.056;7.262;2023-06-22T01:51:36;21.00;72.20
2190;DHT22;1101;51.056;7.262;2023-06-22T01:54:06;21.00;72.30
2190;DHT22;1101;51.056;7.262;2023-06-22T01:56:34;21.00;72.30
2190;DHT22;1101;51.056;7.262;2023-06-22T01:59:06;21.00;72.40
2190;DHT22;1101;51.056;7.262;2023-06-22T02:01:42;20.90;72.20
2190;DHT22;1101;51.056;7.262;2023-06-22T02:04:13;20.90;72.40
2190;DHT22;1101;51.056;7.262;2023-06-22T02:06:45;20.90;72.30
2190;DHT22;1101;51.056;7.262;2023-06-22T02:09:17;20.90;72.40
2190;DHT22;1101;51.056;7.262;2023-06-22T02:11:47;20.90;72.40
2190;DHT22;1101;51.056;7.262;2023-06-22T02:14:15;20.90;72.40
2190;DHT22;1101;51.056;7.262;2023-06-22T02:16:47;20.90;72.40
2190;DHT22;1101;51.056;7.262;2023-06-22T02:19:15;20.90;72.40
2190;DHT22;1101;51.056;7.262;2023-06-22T02:21:45;20.90;72.50
2190;DHT22;1101;51.056;7.262;2023-06-22T02:24:13;20.90;72.50
2190;DHT22;1101;51.056;7.262;2023-06-22T02:26:41;20.90;72.50
2190;DHT22;1101;51.056;7.262;2023-06-22T02:29:11;20.90;72.50
2190;DHT22;1101;51.056;7.262;2023-06-22T02:31:39;20.90;72.50
2190;DHT22;1101;51.056;7.262;2023-06-22T02:34:08;20.90;72.50
2190;DHT22;1101;51.056;7.262;2023-06-22T02:36:36;20.90;72.50
2190;DHT22;1101;51.056;7.262;2023-06-22T02:39:04;20.90;72.50
2190;DHT22;1101;51.056;7.262;2023-06-22T02:41:32;20.90;72.50
2190;DHT22;1101;51.056;7.262;2023-06-22T02:44:00;20.90;72.50
2190;DHT22;1101;51.056;7.262;2023-06-22T02:46:27;20.90;72.60
2190;DHT22;1101;51.056;7.262;2023-06-22T02:48:55;20.90;72.60
2190;DHT22;1101;51.056;7.262;2023-06-22T02:51:24;20.90;72.60
2190;DHT22;1101;51.056;7.262;2023-06-22T02:53:52;20.90;72.70
2190;DHT22;1101;51.056;7.262;2023-06-22T02:56:24;20.90;72.70
2190;DHT22;1101;51.056;7.262;2023-06-22T02:58:52;20.80;72.70
2190;DHT22;1101;51.056;7.262;2023-06-22T03:01:20;20.80;72.70
2190;DHT22;1101;51.056;7.262;2023-06-22T03:03:50;20.80;72.70
2190;DHT22;1101;51.056;7.262;2023-06-22T03:06:18;20.80;72.80
2190;DHT22;1101;51.056;7.262;2023-06-22T03:08:51;20.80;73.00
2190;DHT22;1101;51.056;7.262;2023-06-22T03:11:19;20.80;72.80
2190;DHT22;1101;51.056;7.262;2023-06-22T03:13:47;20.80;72.80
2190;DHT22;1101;51.056;7.262;2023-06-22T03:16:15;20.80;72.90
2190;DHT22;1101;51.056;7.262;2023-06-22T03:18:43;20.80;72.80
2190;DHT22;1101;51.056;7.262;2023-06-22T03:21:11;20.80;72.80
2190;DHT22;1101;51.056;7.262;2023-06-22T03:23:39;20.80;72.80
2190;DHT22;1101;51.056;7.262;2023-06-22T03:26:09;20.80;72.90
2190;DHT22;1101;51.056;7.262;2023-06-22T03:28:37;20.80;72.90
2190;DHT22;1101;51.056;7.262;2023-06-22T03:31:05;20.80;73.00
2190;DHT22;1101;51.056;7.262;2023-06-22T03:33:34;20.70;73.00
2190;DHT22;1101;51.056;7.262;2023-06-22T03:36:02;20.70;73.00
2190;DHT22;1101;51.056;7.262;2023-06-22T03:38:30;20.70;73.30
2190;DHT22;1101;51.056;7.262;2023-06-22T03:40:58;20.70;73.90
2190;DHT22;1101;51.056;7.262;2023-06-22T03:43:27;20.70;73.20
2190;DHT22;1101;51.056;7.262;2023-06-22T03:45:55;20.70;73.20
2190;DHT22;1101;51.056;7.262;2023-06-22T03:48:23;20.70;73.30
2190;DHT22;1101;51.056;7.262;2023-06-22T03:50:51;20.70;73.30
2190;DHT22;1101;51.056;7.262;2023-06-22T03:53:19;20.70;73.30
2190;DHT22;1101;51.056;7.262;2023-06-22T03:55:50;20.70;73.30
2190;DHT22;1101;51.056;7.262;2023-06-22T03:58:20;20.70;73.40
2190;DHT22;1101;51.056;7.262;2023-06-22T04:00:51;20.70;73.50
2190;DHT22;1101;51.056;7.262;2023-06-22T04:03:19;20.70;73.50
2190;DHT22;1101;51.056;7.262;2023-06-22T04:05:48;20.70;73.50
2190;DHT22;1101;51.056;7.262;2023-06-22T04:08:16;20.80;73.60
2190;DHT22;1101;51.056;7.262;2023-06-22T04:10:44;20.70;73.50
2190;DHT22;1101;51.056;7.262;2023-06-22T04:13:12;20.70;73.60
2190;DHT22;1101;51.056;7.262;2023-06-22T04:15:39;20.70;73.70
2190;DHT22;1101;51.056;7.262;2023-06-22T04:18:09;20.70;73.70
2190;DHT22;1101;51.056;7.262;2023-06-22T04:20:37;20.70;73.70
2190;DHT22;1101;51.056;7.262;2023-06-22T04:23:05;20.70;73.90
2190;DHT22;1101;51.056;7.262;2023-06-22T04:25:33;20.70;73.90
2190;DHT22;1101;51.056;7.262;2023-06-22T04:28:01;20.70;74.00
2190;DHT22;1101;51.056;7.262;2023-06-22T04:30:32;20.70;74.00
2190;DHT22;1101;51.056;7.262;2023-06-22T04:33:00;20.70;74.10
2190;DHT22;1101;51.056;7.262;2023-06-22T04:35:30;20.70;74.20
2190;DHT22;1101;51.056;7.262;2023-06-22T04:37:58;20.80;74.30
2190;DHT22;1101;51.056;7.262;2023-06-22T04:40:26;20.70;74.30
2190;DHT22;1101;51.056;7.262;2023-06-22T04:42:54;20.80;74.40
2190;DHT22;1101;51.056;7.262;2023-06-22T04:45:22;20.80;74.50
2190;DHT22;1101;51.056;7.262;2023-06-22T04:47:51;20.90;74.70
2190;DHT22;1101;51.056;7.262;2023-06-22T04:50:19;20.90;75.00
2190;DHT22;1101;51.056;7.262;2023-06-22T04:52:50;20.90;75.20
2190;DHT22;1101;51.056;7.262;2023-06-22T04:55:19;20.90;75.30
2190;DHT22;1101;51.056;7.262;2023-06-22T04:57:47;20.90;75.40
2190;DHT22;1101;51.056;7.262;2023-06-22T05:00:17;20.90;75.40
2190;DHT22;1101;51.056;7.262;2023-06-22T05:02:49;20.90;75.40
2190;DHT22;1101;51.056;7.262;2023-06-22T05:05:20;20.90;75.40
2190;DHT22;1101;51.056;7.262;2023-06-22T05:07:51;20.90;75.60
2190;DHT22;1101;51.056;7.262;2023-06-22T05:10:21;20.90;75.60
2190;DHT22;1101;51.056;7.262;2023-06-22T05:12:49;20.90;75.60
2190;DHT22;1101;51.056;7.262;2023-06-22T05:15:17;21.00;75.80
2190;DHT22;1101;51.056;7.262;2023-06-22T05:17:46;21.00;76.10
2190;DHT22;1101;51.056;7.262;2023-06-22T05:20:14;21.00;76.20
2190;DHT22;1101;51.056;7.262;2023-06-22T05:22:44;21.00;76.10
2190;DHT22;1101;51.056;7.262;2023-06-22T05:25:14;21.00;76.50
2190;DHT22;1101;51.056;7.262;2023-06-22T05:27:42;21.00;76.40
2190;DHT22;1101;51.056;7.262;2023-06-22T05:30:11;21.00;76.50
2190;DHT22;1101;51.056;7.262;2023-06-22T05:32:39;21.00;76.60
2190;DHT22;1101;51.056;7.262;2023-06-22T05:35:07;21.00;77.40
2190;DHT22;1101;51.056;7.262;2023-06-22T05:37:35;21.00;77.00
2190;DHT22;1101;51.056;7.262;2023-06-22T05:40:04;21.00;77.00
2190;DHT22;1101;51.056;7.262;2023-06-22T05:42:35;21.10;77.30
2190;DHT22;1101;51.056;7.262;2023-06-22T05:45:03;21.00;77.20
2190;DHT22;1101;51.056;7.262;2023-06-22T05:47:31;21.00;77.40
2190;DHT22;1101;51.056;7.262;2023-06-22T05:49:59;21.00;77.50
2190;DHT22;1101;51.056;7.262;2023-06-22T05:52:27;21.00;77.60
2190;DHT22;1101;51.056;7.262;2023-06-22T05:54:55;21.00;77.70
2190;DHT22;1101;51.056;7.262;2023-06-22T05:57:23;21.00;77.50
2190;DHT22;1101;51.056;7.262;2023-06-22T05:59:53;21.00;77.60
2190;DHT22;1101;51.056;7.262;2023-06-22T06:02:21;21.10;77.80
2190;DHT22;1101;51.056;7.262;2023-06-22T06:04:48;21.10;77.80
2190;DHT22;1101;51.056;7.262;2023-06-22T06:07:17;21.20;77.80
2190;DHT22;1101;51.056;7.262;2023-06-22T06:09:45;21.20;77.90
2190;DHT22;1101;51.056;7.262;2023-06-22T06:12:14;21.20;78.00
2190;DHT22;1101;51.056;7.262;2023-06-22T06:14:42;21.30;78.20
2190;DHT22;1101;51.056;7.262;2023-06-22T06:17:11;21.40;78.10
2190;DHT22;1101;51.056;7.262;2023-06-22T06:19:39;21.50;77.80
2190;DHT22;1101;51.056;7.262;2023-06-22T06:22:07;21.60;77.70
2190;DHT22;1101;51.056;7.262;2023-06-22T06:24:35;21.70;77.60
2190;DHT22;1101;51.056;7.262;2023-06-22T06:27:03;21.80;77.30
2190;DHT22;1101;51.056;7.262;2023-06-22T06:29:31;21.90;77.40
2190;DHT22;1101;51.056;7.262;2023-06-22T06:31:59;22.00;77.70
2190;DHT22;1101;51.056;7.262;2023-06-22T06:34:29;22.20;76.90
2190;DHT22;1101;51.056;7.262;2023-06-22T06:36:57;22.30;76.70
2190;DHT22;1101;51.056;7.262;2023-06-22T06:39:25;22.40;76.70
2190;DHT22;1101;51.056;7.262;2023-06-22T06:41:52;22.60;76.50
2190;DHT22;1101;51.056;7.262;2023-06-22T06:44:20;22.70;76.50
2190;DHT22;1101;51.056;7.262;2023-06-22T06:46:48;22.80;76.40
2190;DHT22;1101;51.056;7.262;2023-06-22T06:49:16;22.90;76.50
2190;DHT22;1101;51.056;7.262;2023-06-22T06:51:45;22.90;76.30
2190;DHT22;1101;51.056;7.262;2023-06-22T06:54:13;23.10;76.40
2190;DHT22;1101;51.056;7.262;2023-06-22T06:56:42;23.20;76.30
2190;DHT22;1101;51.056;7.262;2023-06-22T06:59:15;23.30;76.30
2190;DHT22;1101;51.056;7.262;2023-06-22T07:01:43;23.40;76.30
2190;DHT22;1101;51.056;7.262;2023-06-22T07:04:11;23.50;76.10
2190;DHT22;1101;51.056;7.262;2023-06-22T07:06:39;23.60;76.10
2190;DHT22;1101;51.056;7.262;2023-06-22T07:09:08;23.70;76.10
2190;DHT22;1101;51.056;7.262;2023-06-22T07:11:36;23.70;75.90
2190;DHT22;1101;51.056;7.262;2023-06-22T07:14:04;23.80;76.00
2190;DHT22;1101;51.056;7.262;2023-06-22T07:16:32;24.00;76.00
2190;DHT22;1101;51.056;7.262;2023-06-22T07:18:59;24.00;75.90
2190;DHT22;1101;51.056;7.262;2023-06-22T07:21:27;24.00;75.90
2190;DHT22;1101;51.056;7.262;2023-06-22T07:23:55;24.00;75.90
2190;DHT22;1101;51.056;7.262;2023-06-22T07:26:24;24.10;75.90
2190;DHT22;1101;51.056;7.262;2023-06-22T07:28:52;24.30;76.00
2190;DHT22;1101;51.056;7.262;2023-06-22T07:31:20;24.50;75.80
2190;DHT22;1101;51.056;7.262;2023-06-22T07:33:48;24.60;75.70
2190;DHT22;1101;51.056;7.262;2023-06-22T07:36:17;24.70;75.60
2190;DHT22;1101;51.056;7.262;2023-06-22T07:38:44;24.90;75.50
2190;DHT22;1101;51.056;7.262;2023-06-22T07:41:13;25.10;75.40
2190;DHT22;1101;51.056;7.262;2023-06-22T07:43:43;25.10;75.00
2190;DHT22;1101;51.056;7.262;2023-06-22T07:46:10;25.20;75.00
2190;DHT22;1101;51.056;7.262;2023-06-22T07:48:38;25.20;75.00
2190;DHT22;1101;51.056;7.262;2023-06-22T07:51:08;25.20;75.00
2190;DHT22;1101;51.056;7.262;2023-06-22T07:53:39;25.40;75.10
2190;DHT22;1101;51.056;7.262;2023-06-22T07:56:07;25.50;74.90
2190;DHT22;1101;51.056;7.262;2023-06-22T07:58:37;25.70;74.80
2190;DHT22;1101;51.056;7.262;2023-06-22T08:01:06;25.80;74.50
2190;DHT22;1101;51.056;7.262;2023-06-22T08:03:36;25.80;74.30
2190;DHT22;1101;51.056;7.262;2023-06-22T08:06:04;25.80;74.30
2190;DHT22;1101;51.056;7.262;2023-06-22T08:08:32;25.70;74.40
2190;DHT22;1101;51.056;7.262;2023-06-22T08:11:00;25.70;74.40
2190;DHT22;1101;51.056;7.262;2023-06-22T08:13:28;25.60;74.40
2190;DHT22;1101;51.056;7.262;2023-06-22T08:15:56;25.60;74.50
2190;DHT22;1101;51.056;7.262;2023-06-22T08:18:25;25.80;74.60
2190;DHT22;1101;51.056;7.262;2023-06-22T08:20:53;25.90;74.40
2190;DHT22;1101;51.056;7.262;2023-06-22T08:23:21;26.10;74.30
2190;DHT22;1101;51.056;7.262;2023-06-22T08:25:49;26.30;74.20
2190;DHT22;1101;51.056;7.262;2023-06-22T08:28:16;26.40;74.00
2190;DHT22;1101;51.056;7.262;2023-06-22T08:30:44;26.50;73.80
2190;DHT22;1101;51.056;7.262;2023-06-22T08:33:12;26.50;73.80
2190;DHT22;1101;51.056;7.262;2023-06-22T08:35:49;26.50;73.80
2190;DHT22;1101;51.056;7.262;2023-06-22T08:38:18;26.50;73.80
2190;DHT22;1101;51.056;7.262;2023-06-22T08:40:45;26.50;73.80
2190;DHT22;1101;51.056;7.262;2023-06-22T08:43:14;26.50;73.90
2190;DHT22;1101;51.056;7.262;2023-06-22T08:45:42;26.50;73.90
2190;DHT22;1101;51.056;7.262;2023-06-22T08:48:11;26.50;74.00
2190;DHT22;1101;51.056;7.262;2023-06-22T08:50:39;26.50;74.00
2190;DHT22;1101;51.056;7.262;2023-06-22T08:53:08;26.60;74.00
2190;DHT22;1101;51.056;7.262;2023-06-22T08:55:36;26.60;74.00
2190;DHT22;1101;51.056;7.262;2023-06-22T08:58:04;26.70;74.00
2190;DHT22;1101;51.056;7.262;2023-06-22T09:00:33;26.80;73.80
2190;DHT22;1101;51.056;7.262;2023-06-22T09:03:01;27.00;73.80
2190;DHT22;1101;51.056;7.262;2023-06-22T09:05:29;27.10;73.60
2190;DHT22;1101;51.056;7.262;2023-06-22T09:07:58;27.20;73.50
2190;DHT22;1101;51.056;7.262;2023-06-22T09:10:27;27.20;73.30
2190;DHT22;1101;51.056;7.262;2023-06-22T09:12:57;27.10;73.10
2190;DHT22;1101;51.056;7.262;2023-06-22T09:15:25;27.00;73.80
2190;DHT22;1101;51.056;7.262;2023-06-22T09:17:52;27.00;73.30
2190;DHT22;1101;51.056;7.262;2023-06-22T09:20:21;26.90;73.30
2190;DHT22;1101;51.056;7.262;2023-06-22T09:22:49;26.90;73.50
2190;DHT22;1101;51.056;7.262;2023-06-22T09:25:17;26.80;73.50
2190;DHT22;1101;51.056;7.262;2023-06-22T09:27:48;26.80;73.40
2190;DHT22;1101;51.056;7.262;2023-06-22T09:30:16;26.80;73.50
2190;DHT22;1101;51.056;7.262;2023-06-22T09:32:44;26.80;73.50
2190;DHT22;1101;51.056;7.262;2023-06-22T09:35:12;26.80;73.50
2190;DHT22;1101;51.056;7.262;2023-06-22T09:37:40;26.80;73.50
2190;DHT22;1101;51.056;7.262;2023-06-22T09:40:09;26.80;73.40
2190;DHT22;1101;51.056;7.262;2023-06-22T09:42:39;26.80;73.30
2190;DHT22;1101;51.056;7.262;2023-06-22T09:45:09;26.80;73.30
2190;DHT22;1101;51.056;7.262;2023-06-22T09:47:37;26.90;73.30
2190;DHT22;1101;51.056;7.262;2023-06-22T09:50:06;26.90;73.20
2190;DHT22;1101;51.056;7.262;2023-06-22T09:52:34;27.00;73.20
2190;DHT22;1101;51.056;7.262;2023-06-22T09:55:14;27.00;73.10
2190;DHT22;1101;51.056;7.262;2023-06-22T09:57:43;27.10;73.10
2190;DHT22;1101;51.056;7.262;2023-06-22T10:00:14;27.20;73.00
2190;DHT22;1101;51.056;7.262;2023-06-22T10:02:42;27.30;72.80
2190;DHT22;1101;51.056;7.262;2023-06-22T10:05:11;27.30;72.80
2190;DHT22;1101;51.056;7.262;2023-06-22T10:07:40;27.40;72.80
2190;DHT22;1101;51.056;7.262;2023-06-22T10:10:10;27.40;72.60
2190;DHT22;1101;51.056;7.262;2023-06-22T10:12:41;27.50;72.60
2190;DHT22;1101;51.056;7.262;2023-06-22T10:15:11;27.50;72.50
2190;DHT22;1101;51.056;7.262;2023-06-22T10:17:40;27.60;72.50
2190;DHT22;1101;51.056;7.262;2023-06-22T10:20:08;27.50;72.50
2190;DHT22;1101;51.056;7.262;2023-06-22T10:22:40;27.50;72.60
2190;DHT22;1101;51.056;7.262;2023-06-22T10:25:08;27.40;72.50
2190;DHT22;1101;51.056;7.262;2023-06-22T10:27:36;27.30;72.60
2190;DHT22;1101;51.056;7.262;2023-06-22T10:30:07;27.20;72.80
2190;DHT22;1101;51.056;7.262;2023-06-22T10:32:38;27.10;72.90
2190;DHT22;1101;51.056;7.262;2023-06-22T10:35:07;27.00;73.00
2190;DHT22;1101;51.056;7.262;2023-06-22T10:37:35;26.90;73.20
2190;DHT22;1101;51.056;7.262;2023-06-22T10:40:05;26.90;73.30
2190;DHT22;1101;51.056;7.262;2023-06-22T10:42:34;26.80;73.40
2190;DHT22;1101;51.056;7.262;2023-06-22T10:45:02;26.70;73.60
2190;DHT22;1101;51.056;7.262;2023-06-22T10:47:30;26.70;74.00
2190;DHT22;1101;51.056;7.262;2023-06-22T10:49:59;26.60;74.40
2190;DHT22;1101;51.056;7.262;2023-06-22T10:52:27;26.50;74.60
2190;DHT22;1101;51.056;7.262;2023-06-22T10:54:55;26.40;74.80
2190;DHT22;1101;51.056;7.262;2023-06-22T10:57:23;26.40;75.20
2190;DHT22;1101;51.056;7.262;2023-06-22T10:59:51;26.30;75.50
2190;DHT22;1101;51.056;7.262;2023-06-22T11:02:19;26.20;75.70
2190;DHT22;1101;51.056;7.262;2023-06-22T11:04:47;26.10;76.10
2190;DHT22;1101;51.056;7.262;2023-06-22T11:07:16;26.00;76.60
2190;DHT22;1101;51.056;7.262;2023-06-22T11:09:45;25.80;76.60
2190;DHT22;1101;51.056;7.262;2023-06-22T11:12:13;25.60;76.90
2190;DHT22;1101;51.056;7.262;2023-06-22T11:14:41;25.40;77.30
2190;DHT22;1101;51.056;7.262;2023-06-22T11:17:08;25.30;77.60
2190;DHT22;1101;51.056;7.262;2023-06-22T11:19:36;25.20;78.10
2190;DHT22;1101;51.056;7.262;2023-06-22T11:22:05;25.10;78.20
2190;DHT22;1101;51.056;7.262;2023-06-22T11:24:34;25.10;78.40
2190;DHT22;1101;51.056;7.262;2023-06-22T11:27:02;25.00;78.60
2190;DHT22;1101;51.056;7.262;2023-06-22T11:29:31;24.90;78.80
2190;DHT22;1101;51.056;7.262;2023-06-22T11:32:05;24.80;79.00
2190;DHT22;1101;51.056;7.262;2023-06-22T11:34:33;24.80;79.40
2190;DHT22;1101;51.056;7.262;2023-06-22T11:37:01;24.70;79.50
2190;DHT22;1101;51.056;7.262;2023-06-22T11:39:29;24.60;79.70
2190;DHT22;1101;51.056;7.262;2023-06-22T11:42:09;24.50;79.80
2190;DHT22;1101;51.056;7.262;2023-06-22T11:44:38;24.40;80.00
2190;DHT22;1101;51.056;7.262;2023-06-22T11:47:06;24.30;80.10
2190;DHT22;1101;51.056;7.262;2023-06-22T11:49:33;24.20;80.20
2190;DHT22;1101;51.056;7.262;2023-06-22T11:52:03;24.20;80.50
2190;DHT22;1101;51.056;7.262;2023-06-22T11:54:31;24.10;81.00
2190;DHT22;1101;51.056;7.262;2023-06-22T11:56:58;24.00;81.00
2190;DHT22;1101;51.056;7.262;2023-06-22T11:59:28;23.90;81.10
2190;DHT22;1101;51.056;7.262;2023-06-22T12:01:56;23.80;82.20
2190;DHT22;1101;51.056;7.262;2023-06-22T12:04:24;23.70;81.80
2190;DHT22;1101;51.056;7.262;2023-06-22T12:06:52;23.60;82.00
2190;DHT22;1101;51.056;7.262;2023-06-22T12:09:20;23.50;82.10
2190;DHT22;1101;51.056;7.262;2023-06-22T12:11:48;23.60;82.50
2190;DHT22;1101;51.056;7.262;2023-06-22T12:14:16;23.70;82.70
2190;DHT22;1101;51.056;7.262;2023-06-22T12:16:45;23.80;83.00
2190;DHT22;1101;51.056;7.262;2023-06-22T12:19:13;23.90;83.10
2190;DHT22;1101;51.056;7.262;2023-06-22T12:21:41;24.10;83.20
2190;DHT22;1101;51.056;7.262;2023-06-22T12:24:12;24.40;82.80
2190;DHT22;1101;51.056;7.262;2023-06-22T12:26:40;24.70;82.90
2190;DHT22;1101;51.056;7.262;2023-06-22T12:29:07;24.70;82.50
2190;DHT22;1101;51.056;7.262;2023-06-22T12:31:36;24.70;83.00
2190;DHT22;1101;51.056;7.262;2023-06-22T12:34:06;24.60;82.70
2190;DHT22;1101;51.056;7.262;2023-06-22T12:36:34;24.50;83.50
2190;DHT22;1101;51.056;7.262;2023-06-22T12:39:02;24.30;83.00
2190;DHT22;1101;51.056;7.262;2023-06-22T12:41:30;24.20;83.20
2190;DHT22;1101;51.056;7.262;2023-06-22T12:43:58;24.10;83.50
2190;DHT22;1101;51.056;7.262;2023-06-22T12:46:26;24.00;83.30
2190;DHT22;1101;51.056;7.262;2023-06-22T12:48:54;24.00;83.70
2190;DHT22;1101;51.056;7.262;2023-06-22T12:51:23;23.90;83.80
2190;DHT22;1101;51.056;7.262;2023-06-22T12:53:51;23.80;84.10
2190;DHT22;1101;51.056;7.262;2023-06-22T12:56:19;23.70;83.80
2190;DHT22;1101;51.056;7.262;2023-06-22T12:58:48;23.70;84.10
2190;DHT22;1101;51.056;7.262;2023-06-22T13:01:15;23.80;85.00
2190;DHT22;1101;51.056;7.262;2023-06-22T13:03:45;23.80;84.80
2190;DHT22;1101;51.056;7.262;2023-06-22T13:06:12;24.00;84.50
2190;DHT22;1101;51.056;7.262;2023-06-22T13:08:42;24.30;84.50
2190;DHT22;1101;51.056;7.262;2023-06-22T13:11:29;24.50;84.50
2190;DHT22;1101;51.056;7.262;2023-06-22T13:13:57;24.60;84.10
2190;DHT22;1101;51.056;7.262;2023-06-22T13:16:25;24.70;83.70
2190;DHT22;1101;51.056;7.262;2023-06-22T13:18:53;24.90;83.70
2190;DHT22;1101;51.056;7.262;2023-06-22T13:21:21;24.90;83.60
2190;DHT22;1101;51.056;7.262;2023-06-22T13:23:50;24.90;83.40
2190;DHT22;1101;51.056;7.262;2023-06-22T13:26:18;25.00;83.40
2190;DHT22;1101;51.056;7.262;2023-06-22T13:28:46;25.00;83.90
2190;DHT22;1101;51.056;7.262;2023-06-22T13:31:14;25.00;83.80
2190;DHT22;1101;51.056;7.262;2023-06-22T13:33:42;25.00;83.20
2190;DHT22;1101;51.056;7.262;2023-06-22T13:36:12;25.00;83.00
2190;DHT22;1101;51.056;7.262;2023-06-22T13:38:40;25.00;83.10
2190;DHT22;1101;51.056;7.262;2023-06-22T13:41:09;25.20;83.00
2190;DHT22;1101;51.056;7.262;2023-06-22T13:43:37;25.30;83.10
2190;DHT22;1101;51.056;7.262;2023-06-22T13:46:05;25.30;82.70
2190;DHT22;1101;51.056;7.262;2023-06-22T13:48:32;25.40;82.60
2190;DHT22;1101;51.056;7.262;2023-06-22T13:51:00;25.50;82.70
2190;DHT22;1101;51.056;7.262;2023-06-22T13:53:28;25.60;82.40
2190;DHT22;1101;51.056;7.262;2023-06-22T13:55:56;25.70;82.60
2190;DHT22;1101;51.056;7.262;2023-06-22T13:58:25;25.80;82.30
2190;DHT22;1101;51.056;7.262;2023-06-22T14:00:53;25.80;82.30
2190;DHT22;1101;51.056;7.262;2023-06-22T14:03:22;25.90;82.20
2190;DHT22;1101;51.056;7.262;2023-06-22T14:05:51;25.80;82.40
2190;DHT22;1101;51.056;7.262;2023-06-22T14:08:20;25.80;82.40
2190;DHT22;1101;51.056;7.262;2023-06-22T14:11:07;25.80;82.60
2190;DHT22;1101;51.056;7.262;2023-06-22T14:13:36;25.90;82.30
2190;DHT22;1101;51.056;7.262;2023-06-22T14:16:04;25.90;82.00
2190;DHT22;1101;51.056;7.262;2023-06-22T14:18:32;26.00;82.20
2190;DHT22;1101;51.056;7.262;2023-06-22T14:21:00;26.10;82.00
2190;DHT22;1101;51.056;7.262;2023-06-22T14:23:28;26.20;82.00
2190;DHT22;1101;51.056;7.262;2023-06-22T14:25:56;26.20;82.20
2190;DHT22;1101;51.056;7.262;2023-06-22T14:28:24;26.20;82.10
2190;DHT22;1101;51.056;7.262;2023-06-22T14:30:53;26.30;81.90
2190;DHT22;1101;51.056;7.262;2023-06-22T14:33:21;26.30;82.30
2190;DHT22;1101;51.056;7.262;2023-06-22T14:35:49;26.30;82.10
2190;DHT22;1101;51.056;7.262;2023-06-22T14:38:16;26.20;82.40
2190;DHT22;1101;51.056;7.262;2023-06-22T14:40:44;26.10;82.40
2190;DHT22;1101;51.056;7.262;2023-06-22T14:43:32;25.90;82.30
2190;DHT22;1101;51.056;7.262;2023-06-22T14:46:01;25.90;82.60
2190;DHT22;1101;51.056;7.262;2023-06-22T14:48:30;25.70;83.00
2190;DHT22;1101;51.056;7.262;2023-06-22T14:50:58;25.70;83.10
2190;DHT22;1101;51.056;7.262;2023-06-22T14:53:26;25.60;83.50
2190;DHT22;1101;51.056;7.262;2023-06-22T14:55:54;25.40;83.30
2190;DHT22;1101;51.056;7.262;2023-06-22T14:58:22;25.30;83.40
2190;DHT22;1101;51.056;7.262;2023-06-22T15:00:50;25.20;83.40
2190;DHT22;1101;51.056;7.262;2023-06-22T15:03:19;25.10;83.40
2190;DHT22;1101;51.056;7.262;2023-06-22T15:05:53;24.90;83.70
2190;DHT22;1101;51.056;7.262;2023-06-22T15:08:21;24.80;84.50
2190;DHT22;1101;51.056;7.262;2023-06-22T15:10:50;24.80;84.70
2190;DHT22;1101;51.056;7.262;2023-06-22T15:13:18;24.70;84.40
2190;DHT22;1101;51.056;7.262;2023-06-22T15:15:46;24.50;84.30
2190;DHT22;1101;51.056;7.262;2023-06-22T15:18:15;24.40;84.50
2190;DHT22;1101;51.056;7.262;2023-06-22T15:20:44;24.30;84.90
2190;DHT22;1101;51.056;7.262;2023-06-22T15:23:12;24.10;84.70
2190;DHT22;1101;51.056;7.262;2023-06-22T15:25:40;24.10;85.00
2190;DHT22;1101;51.056;7.262;2023-06-22T15:28:08;24.00;85.10
2190;DHT22;1101;51.056;7.262;2023-06-22T15:30:36;24.00;85.10
2190;DHT22;1101;51.056;7.262;2023-06-22T15:33:04;23.90;85.20
2190;DHT22;1101;51.056;7.262;2023-06-22T15:35:32;23.80;85.30
2190;DHT22;1101;51.056;7.262;2023-06-22T15:38:01;23.80;85.40
2190;DHT22;1101;51.056;7.262;2023-06-22T15:40:29;23.70;85.50
2190;DHT22;1101;51.056;7.262;2023-06-22T15:42:57;23.70;85.80
2190;DHT22;1101;51.056;7.262;2023-06-22T15:45:25;23.60;85.80
2190;DHT22;1101;51.056;7.262;2023-06-22T15:47:53;23.50;85.90
2190;DHT22;1101;51.056;7.262;2023-06-22T15:50:21;23.40;86.00
2190;DHT22;1101;51.056;7.262;2023-06-22T15:52:49;23.30;86.30
2190;DHT22;1101;51.056;7.262;2023-06-22T15:55:19;23.30;86.50
2190;DHT22;1101;51.056;7.262;2023-06-22T15:57:47;23.20;86.80
2190;DHT22;1101;51.056;7.262;2023-06-22T16:00:16;23.10;87.40
2190;DHT22;1101;51.056;7.262;2023-06-22T16:02:45;23.00;87.50
2190;DHT22;1101;51.056;7.262;2023-06-22T16:05:14;22.90;87.20
2190;DHT22;1101;51.056;7.262;2023-06-22T16:07:42;22.80;87.30
2190;DHT22;1101;51.056;7.262;2023-06-22T16:10:10;22.80;87.40
2190;DHT22;1101;51.056;7.262;2023-06-22T16:12:42;22.80;87.70